sensor_id;sensor_type;location;lat;lon;timestamp;pressure;altitude;pressure_sealevel;temperature;humidity
21182;BME280;10749;46.296;7.524;2022-08-19T00:00:14;94564.59;;;20.73;63.64
21182;BME280;10749;46.296;7.524;2022-08-19T00:02:41;94553.03;;;20.72;63.72
21182;BME280;10749;46.296;7.524;2022-08-19T00:05:07;94554.66;;;20.73;63.83
21182;BME280;10749;46.296;7.524;2022-08-19T00:07:32;94561.03;;;20.67;64.36
21182;BME280;10749;46.296;7.524;2022-08-19T00:09:58;94562.03;;;20.61;64.28
21182;BME280;10749;46.296;7.524;2022-08-19T00:12:23;94577.84;;;20.58;64.17
21182;BME280;10749;46.296;7.524;2022-08-19T00:14:48;94580.59;;;20.63;64.10
21182;BME280;10749;46.296;7.524;2022-08-19T00:17:14;94580.59;;;20.63;64.36
21182;BME280;10749;46.296;7.524;2022-08-19T00:19:39;94585.72;;;20.64;64.40
21182;BME280;10749;46.296;7.524;2022-08-19T00:22:06;94588.41;;;20.64;64.00
21182;BME280;10749;46.296;7.524;2022-08-19T00:24:33;94587.47;;;20.54;64.14
21182;BME280;10749;46.296;7.524;2022-08-19T00:26:59;94585.19;;;20.46;63.67
21182;BME280;10749;46.296;7.524;2022-08-19T00:29:26;94588.88;;;20.40;64.51
21182;BME280;10749;46.296;7.524;2022-08-19T00:31:52;94589.09;;;20.55;64.39
21182;BME280;10749;46.296;7.524;2022-08-19T00:34:22;94585.66;;;20.59;64.56
21182;BME280;10749;46.296;7.524;2022-08-19T00:36:47;94585.50;;;20.66;64.25
21182;BME280;10749;46.296;7.524;2022-08-19T00:39:14;94571.31;;;20.70;64.59
21182;BME280;10749;46.296;7.524;2022-08-19T00:41:41;94565.94;;;20.70;64.53
21182;BME280;10749;46.296;7.524;2022-08-19T00:44:12;94562.97;;;20.72;64.49
21182;BME280;10749;46.296;7.524;2022-08-19T00:46:42;94556.53;;;20.73;64.42
21182;BME280;10749;46.296;7.524;2022-08-19T00:51:47;94545.72;;;20.68;64.41
21182;BME280;10749;46.296;7.524;2022-08-19T00:54:13;94559.72;;;20.70;63.63
21182;BME280;10749;46.296;7.524;2022-08-19T00:56:40;94549.41;;;20.62;64.31
21182;BME280;10749;46.296;7.524;2022-08-19T00:59:06;94548.00;;;20.59;64.01
21182;BME280;10749;46.296;7.524;2022-08-19T01:01:39;94555.84;;;20.61;64.62
21182;BME280;10749;46.296;7.524;2022-08-19T01:04:04;94556.81;;;20.55;64.75
21182;BME280;10749;46.296;7.524;2022-08-19T01:06:31;94553.91;;;20.56;64.67
21182;BME280;10749;46.296;7.524;2022-08-19T01:08:58;94553.91;;;20.56;64.74
21182;BME280;10749;46.296;7.524;2022-08-19T01:11:24;94548.81;;;20.60;64.72
21182;BME280;10749;46.296;7.524;2022-08-19T01:13:52;94535.97;;;20.62;64.71
21182;BME280;10749;46.296;7.524;2022-08-19T01:16:20;94535.47;;;20.65;64.40
21182;BME280;10749;46.296;7.524;2022-08-19T01:18:46;94537.09;;;20.66;64.02
21182;BME280;10749;46.296;7.524;2022-08-19T01:21:37;94531.72;;;20.66;64.40
21182;BME280;10749;46.296;7.524;2022-08-19T01:24:04;94544.91;;;20.67;63.91
21182;BME280;10749;46.296;7.524;2022-08-19T01:26:29;94541.91;;;20.64;64.55
21182;BME280;10749;46.296;7.524;2022-08-19T01:28:58;94534.06;;;20.62;64.66
21182;BME280;10749;46.296;7.524;2022-08-19T01:31:26;94534.34;;;20.61;64.67
21182;BME280;10749;46.296;7.524;2022-08-19T01:33:57;94545.75;;;20.51;64.30
21182;BME280;10749;46.296;7.524;2022-08-19T01:36:38;94537.97;;;20.50;64.13
21182;BME280;10749;46.296;7.524;2022-08-19T01:39:07;94539.63;;;20.56;64.36
21182;BME280;10749;46.296;7.524;2022-08-19T01:41:33;94543.44;;;20.60;64.83
21182;BME280;10749;46.296;7.524;2022-08-19T01:43:59;94548.00;;;20.59;64.65
21182;BME280;10749;46.296;7.524;2022-08-19T01:46:26;94548.31;;;20.63;64.52
21182;BME280;10749;46.296;7.524;2022-08-19T01:48:51;94547.84;;;20.66;64.13
21182;BME280;10749;46.296;7.524;2022-08-19T01:51:16;94542.22;;;20.67;64.28
21182;BME280;10749;46.296;7.524;2022-08-19T01:53:43;94530.91;;;20.65;64.42
21182;BME280;10749;46.296;7.524;2022-08-19T01:56:11;94532.19;;;20.63;64.85
21182;BME280;10749;46.296;7.524;2022-08-19T01:58:42;94532.50;;;20.66;64.46
21182;BME280;10749;46.296;7.524;2022-08-19T02:01:11;94530.91;;;20.65;64.95
21182;BME280;10749;46.296;7.524;2022-08-19T02:03:36;94537.09;;;20.66;64.51
21182;BME280;10749;46.296;7.524;2022-08-19T02:06:02;94541.06;;;20.63;64.96
21182;BME280;10749;46.296;7.524;2022-08-19T02:08:30;94550.47;;;20.61;65.17
21182;BME280;10749;46.296;7.524;2022-08-19T02:10:56;94557.47;;;20.62;65.04
21182;BME280;10749;46.296;7.524;2022-08-19T02:13:22;94565.28;;;20.63;65.05
21182;BME280;10749;46.296;7.524;2022-08-19T02:15:48;94548.81;;;20.60;65.31
21182;BME280;10749;46.296;7.524;2022-08-19T02:18:13;94559.91;;;20.63;65.16
21182;BME280;10749;46.296;7.524;2022-08-19T02:20:40;94561.53;;;20.64;65.01
21182;BME280;10749;46.296;7.524;2022-08-19T02:23:06;94576.84;;;20.64;64.85
21182;BME280;10749;46.296;7.524;2022-08-19T02:25:32;94582.22;;;20.64;65.18
21182;BME280;10749;46.296;7.524;2022-08-19T02:27:57;94582.72;;;20.61;65.40
21182;BME280;10749;46.296;7.524;2022-08-19T02:30:23;94582.72;;;20.61;65.43
21182;BME280;10749;46.296;7.524;2022-08-19T02:32:50;94588.66;;;20.63;65.21
21182;BME280;10749;46.296;7.524;2022-08-19T02:35:16;94585.34;;;20.56;65.21
21182;BME280;10749;46.296;7.524;2022-08-19T02:37:43;94588.25;;;20.54;65.48
21182;BME280;10749;46.296;7.524;2022-08-19T02:40:29;94575.25;;;20.46;65.23
21182;BME280;10749;46.296;7.524;2022-08-19T02:42:58;94563.66;;;20.46;65.07
21182;BME280;10749;46.296;7.524;2022-08-19T02:45:24;94563.28;;;20.54;65.29
21182;BME280;10749;46.296;7.524;2022-08-19T02:47:49;94554.72;;;20.57;65.33
21182;BME280;10749;46.296;7.524;2022-08-19T02:50:14;94554.22;;;20.60;65.16
21182;BME280;10749;46.296;7.524;2022-08-19T02:52:40;94546.97;;;20.60;65.21
21182;BME280;10749;46.296;7.524;2022-08-19T02:55:06;94545.31;;;20.59;65.42
21182;BME280;10749;46.296;7.524;2022-08-19T02:57:32;94530.25;;;20.58;65.37
21182;BME280;10749;46.296;7.524;2022-08-19T02:59:57;94531.66;;;20.61;65.36
21182;BME280;10749;46.296;7.524;2022-08-19T03:02:23;94528.13;;;20.60;65.40
21182;BME280;10749;46.296;7.524;2022-08-19T03:04:48;94533.75;;;20.59;64.91
21182;BME280;10749;46.296;7.524;2022-08-19T03:07:15;94525.06;;;20.52;64.79
21182;BME280;10749;46.296;7.524;2022-08-19T03:09:40;94525.06;;;20.52;64.64
21182;BME280;10749;46.296;7.524;2022-08-19T03:12:09;94537.97;;;20.50;64.67
21182;BME280;10749;46.296;7.524;2022-08-19T03:14:34;94543.72;;;20.42;64.99
21182;BME280;10749;46.296;7.524;2022-08-19T03:17:00;94544.50;;;20.37;65.24
21182;BME280;10749;46.296;7.524;2022-08-19T03:19:26;94550.03;;;20.31;64.78
21182;BME280;10749;46.296;7.524;2022-08-19T03:21:52;94546.16;;;20.26;65.04
21182;BME280;10749;46.296;7.524;2022-08-19T03:24:19;94545.53;;;20.19;65.05
21182;BME280;10749;46.296;7.524;2022-08-19T03:26:48;94550.75;;;20.09;64.83
21182;BME280;10749;46.296;7.524;2022-08-19T03:29:15;94543.81;;;19.97;65.48
21182;BME280;10749;46.296;7.524;2022-08-19T03:31:42;94545.78;;;20.01;65.65
21182;BME280;10749;46.296;7.524;2022-08-19T03:34:09;94547.81;;;20.11;65.43
21182;BME280;10749;46.296;7.524;2022-08-19T03:36:37;94558.47;;;20.22;65.27
21182;BME280;10749;46.296;7.524;2022-08-19T03:39:03;94552.28;;;20.39;65.30
21182;BME280;10749;46.296;7.524;2022-08-19T03:41:35;94551.31;;;20.45;65.33
21182;BME280;10749;46.296;7.524;2022-08-19T03:44:01;94556.81;;;20.55;65.20
21182;BME280;10749;46.296;7.524;2022-08-19T03:46:29;94559.09;;;20.63;64.86
21182;BME280;10749;46.296;7.524;2022-08-19T03:48:56;94562.03;;;20.61;65.01
21182;BME280;10749;46.296;7.524;2022-08-19T03:51:23;94560.72;;;20.64;64.79
21182;BME280;10749;46.296;7.524;2022-08-19T03:53:50;94563.63;;;20.62;65.13
21182;BME280;10749;46.296;7.524;2022-08-19T03:56:15;94560.94;;;20.62;65.20
21182;BME280;10749;46.296;7.524;2022-08-19T03:58:41;94556.38;;;20.63;65.22
21182;BME280;10749;46.296;7.524;2022-08-19T04:01:08;94562.63;;;20.47;65.44
21182;BME280;10749;46.296;7.524;2022-08-19T04:03:34;94575.63;;;20.33;64.78
21182;BME280;10749;46.296;7.524;2022-08-19T04:06:23;94584.38;;;20.28;64.89
21182;BME280;10749;46.296;7.524;2022-08-19T04:08:51;94581.78;;;20.34;65.19
21182;BME280;10749;46.296;7.524;2022-08-19T04:11:21;94578.34;;;20.38;64.92
21182;BME280;10749;46.296;7.524;2022-08-19T04:13:47;94580.47;;;20.36;64.51
21182;BME280;10749;46.296;7.524;2022-08-19T04:16:13;94579.66;;;20.36;65.48
21182;BME280;10749;46.296;7.524;2022-08-19T04:18:40;94581.84;;;20.39;65.19
21182;BME280;10749;46.296;7.524;2022-08-19T04:21:07;94577.53;;;20.38;64.99
21182;BME280;10749;46.296;7.524;2022-08-19T04:23:34;94591.47;;;20.35;64.76
21182;BME280;10749;46.296;7.524;2022-08-19T04:26:01;94587.50;;;20.37;65.38
21182;BME280;10749;46.296;7.524;2022-08-19T04:28:27;94587.66;;;20.31;65.93
21182;BME280;10749;46.296;7.524;2022-08-19T04:30:53;94593.19;;;20.41;65.55
21182;BME280;10749;46.296;7.524;2022-08-19T04:33:22;94593.81;;;20.48;65.83
21182;BME280;10749;46.296;7.524;2022-08-19T04:35:50;94592.78;;;20.49;65.83
21182;BME280;10749;46.296;7.524;2022-08-19T04:38:18;94589.03;;;20.50;65.68
21182;BME280;10749;46.296;7.524;2022-08-19T04:40:49;94596.34;;;20.38;66.23
21182;BME280;10749;46.296;7.524;2022-08-19T04:43:35;94597.00;;;20.45;66.04
21182;BME280;10749;46.296;7.524;2022-08-19T04:46:19;94603.25;;;20.50;65.71
21182;BME280;10749;46.296;7.524;2022-08-19T04:48:45;94601.47;;;20.56;65.69
21182;BME280;10749;46.296;7.524;2022-08-19T04:51:11;94606.84;;;20.56;65.71
21182;BME280;10749;46.296;7.524;2022-08-19T04:53:39;94614.28;;;20.49;66.10
21182;BME280;10749;46.296;7.524;2022-08-19T04:56:09;94613.13;;;20.45;65.92
21182;BME280;10749;46.296;7.524;2022-08-19T04:58:36;94616.28;;;20.42;65.78
21182;BME280;10749;46.296;7.524;2022-08-19T05:01:03;94619.31;;;20.28;66.32
21182;BME280;10749;46.296;7.524;2022-08-19T05:03:28;94624.59;;;20.23;66.21
21182;BME280;10749;46.296;7.524;2022-08-19T05:06:04;94631.75;;;20.18;65.54
21182;BME280;10749;46.296;7.524;2022-08-19T05:08:30;94637.38;;;20.00;65.78
21182;BME280;10749;46.296;7.524;2022-08-19T05:10:56;94637.91;;;19.85;66.10
21182;BME280;10749;46.296;7.524;2022-08-19T05:13:22;94640.97;;;19.77;66.73
21182;BME280;10749;46.296;7.524;2022-08-19T05:15:56;94636.44;;;19.77;67.12
21182;BME280;10749;46.296;7.524;2022-08-19T05:18:23;94648.16;;;19.88;66.65
21182;BME280;10749;46.296;7.524;2022-08-19T05:21:09;94631.25;;;19.88;66.25
21182;BME280;10749;46.296;7.524;2022-08-19T05:23:54;94624.53;;;19.73;66.74
21182;BME280;10749;46.296;7.524;2022-08-19T05:26:19;94642.91;;;19.65;67.01
21182;BME280;10749;46.296;7.524;2022-08-19T05:28:45;94632.91;;;19.77;67.17
21182;BME280;10749;46.296;7.524;2022-08-19T05:31:10;94642.31;;;19.91;66.78
21182;BME280;10749;46.296;7.524;2022-08-19T05:33:35;94636.25;;;19.84;66.87
21182;BME280;10749;46.296;7.524;2022-08-19T05:36:01;94645.47;;;19.88;66.69
21182;BME280;10749;46.296;7.524;2022-08-19T05:38:27;94647.69;;;19.91;66.72
21182;BME280;10749;46.296;7.524;2022-08-19T05:40:55;94648.34;;;19.98;66.89
21182;BME280;10749;46.296;7.524;2022-08-19T05:43:20;94652.91;;;19.98;66.87
21182;BME280;10749;46.296;7.524;2022-08-19T05:45:45;94657.78;;;20.01;66.82
21182;BME280;10749;46.296;7.524;2022-08-19T05:48:11;94657.94;;;19.94;66.55
21182;BME280;10749;46.296;7.524;2022-08-19T05:50:38;94655.03;;;19.96;66.41
21182;BME280;10749;46.296;7.524;2022-08-19T05:53:04;94662.91;;;20.02;66.27
21182;BME280;10749;46.296;7.524;2022-08-19T05:55:29;94661.53;;;20.00;66.40
21182;BME280;10749;46.296;7.524;2022-08-19T05:57:55;94665.41;;;19.92;66.72
21182;BME280;10749;46.296;7.524;2022-08-19T06:00:20;94664.09;;;19.78;66.68
21182;BME280;10749;46.296;7.524;2022-08-19T06:02:45;94668.31;;;19.74;66.61
21182;BME280;10749;46.296;7.524;2022-08-19T06:05:11;94666.50;;;19.63;66.85
21182;BME280;10749;46.296;7.524;2022-08-19T06:07:37;94650.97;;;19.65;66.75
21182;BME280;10749;46.296;7.524;2022-08-19T06:10:08;94667.16;;;19.70;66.35
21182;BME280;10749;46.296;7.524;2022-08-19T06:12:35;94665.19;;;19.65;66.33
21182;BME280;10749;46.296;7.524;2022-08-19T06:15:06;94667.94;;;19.54;66.90
21182;BME280;10749;46.296;7.524;2022-08-19T06:17:32;94667.94;;;19.54;67.11
21182;BME280;10749;46.296;7.524;2022-08-19T06:19:59;94675.13;;;19.65;67.18
21182;BME280;10749;46.296;7.524;2022-08-19T06:22:25;94677.25;;;19.63;67.03
21182;BME280;10749;46.296;7.524;2022-08-19T06:24:51;94677.25;;;19.63;66.59
21182;BME280;10749;46.296;7.524;2022-08-19T06:27:19;94686.69;;;19.65;66.70
21182;BME280;10749;46.296;7.524;2022-08-19T06:29:44;94687.22;;;19.79;66.79
21182;BME280;10749;46.296;7.524;2022-08-19T06:32:13;94694.06;;;19.87;66.53
21182;BME280;10749;46.296;7.524;2022-08-19T06:34:39;94701.19;;;19.81;66.45
21182;BME280;10749;46.296;7.524;2022-08-19T06:37:06;94699.09;;;19.83;67.00
21182;BME280;10749;46.296;7.524;2022-08-19T06:39:37;94701.56;;;20.01;66.65
21182;BME280;10749;46.296;7.524;2022-08-19T06:42:05;94705.50;;;20.10;66.62
21182;BME280;10749;46.296;7.524;2022-08-19T06:44:33;94705.59;;;20.15;66.17
21182;BME280;10749;46.296;7.524;2022-08-19T06:47:01;94707.28;;;20.05;66.56
21182;BME280;10749;46.296;7.524;2022-08-19T06:49:27;94720.38;;;20.01;66.52
21182;BME280;10749;46.296;7.524;2022-08-19T06:51:56;94710.31;;;20.08;66.78
21182;BME280;10749;46.296;7.524;2022-08-19T06:54:22;94717.13;;;19.99;66.93
21182;BME280;10749;46.296;7.524;2022-08-19T06:56:48;94711.69;;;20.11;66.51
21182;BME280;10749;46.296;7.524;2022-08-19T06:59:16;94720.28;;;20.24;66.46
21182;BME280;10749;46.296;7.524;2022-08-19T07:01:47;94718.06;;;20.21;66.54
21182;BME280;10749;46.296;7.524;2022-08-19T07:04:15;94728.34;;;20.24;65.77
21182;BME280;10749;46.296;7.524;2022-08-19T07:06:41;94735.31;;;20.25;65.67
21182;BME280;10749;46.296;7.524;2022-08-19T07:09:09;94739.47;;;20.16;65.82
21182;BME280;10749;46.296;7.524;2022-08-19T07:11:34;94739.00;;;19.91;66.57
21182;BME280;10749;46.296;7.524;2022-08-19T07:14:00;94734.44;;;19.92;66.50
21182;BME280;10749;46.296;7.524;2022-08-19T07:16:27;94743.28;;;20.04;66.26
21182;BME280;10749;46.296;7.524;2022-08-19T07:18:53;94743.22;;;20.15;66.20
21182;BME280;10749;46.296;7.524;2022-08-19T07:21:21;94747.38;;;20.23;66.46
21182;BME280;10749;46.296;7.524;2022-08-19T07:23:49;94752.63;;;20.30;66.19
21182;BME280;10749;46.296;7.524;2022-08-19T07:26:19;94761.28;;;20.32;66.02
21182;BME280;10749;46.296;7.524;2022-08-19T07:28:45;94760.09;;;20.27;65.84
21182;BME280;10749;46.296;7.524;2022-08-19T07:31:12;94764.88;;;20.25;65.81
21182;BME280;10749;46.296;7.524;2022-08-19T07:33:39;94768.69;;;20.13;66.16
21182;BME280;10749;46.296;7.524;2022-08-19T07:36:07;94771.63;;;20.11;65.98
21182;BME280;10749;46.296;7.524;2022-08-19T07:38:33;94768.34;;;20.09;66.33
21182;BME280;10749;46.296;7.524;2022-08-19T07:40:59;94775.09;;;19.83;67.49
21182;BME280;10749;46.296;7.524;2022-08-19T07:43:26;94764.22;;;19.90;66.58
21182;BME280;10749;46.296;7.524;2022-08-19T07:45:53;94766.75;;;20.08;66.32
21182;BME280;10749;46.296;7.524;2022-08-19T07:48:21;94770.66;;;20.17;66.41
21182;BME280;10749;46.296;7.524;2022-08-19T07:50:50;94772.47;;;20.00;66.75
21182;BME280;10749;46.296;7.524;2022-08-19T07:53:15;94775.13;;;20.12;66.34
21182;BME280;10749;46.296;7.524;2022-08-19T07:55:41;94772.91;;;20.09;66.89
21182;BME280;10749;46.296;7.524;2022-08-19T07:58:06;94773.53;;;19.99;67.04
21182;BME280;10749;46.296;7.524;2022-08-19T08:00:32;94772.56;;;20.05;66.78
21182;BME280;10749;46.296;7.524;2022-08-19T08:02:57;94771.78;;;20.21;66.49
21182;BME280;10749;46.296;7.524;2022-08-19T08:05:23;94774.34;;;20.28;66.53
21182;BME280;10749;46.296;7.524;2022-08-19T08:08:07;94770.81;;;20.11;66.58
21182;BME280;10749;46.296;7.524;2022-08-19T08:10:51;94788.97;;;19.92;66.99
21182;BME280;10749;46.296;7.524;2022-08-19T08:13:16;94793.41;;;19.98;67.03
21182;BME280;10749;46.296;7.524;2022-08-19T08:15:42;94793.19;;;19.88;67.18
21182;BME280;10749;46.296;7.524;2022-08-19T08:18:11;94795.38;;;20.03;66.76
21182;BME280;10749;46.296;7.524;2022-08-19T08:20:36;94804.41;;;20.13;66.61
21182;BME280;10749;46.296;7.524;2022-08-19T08:23:02;94811.00;;;20.06;66.96
21182;BME280;10749;46.296;7.524;2022-08-19T08:25:46;94805.00;;;19.87;67.72
21182;BME280;10749;46.296;7.524;2022-08-19T08:28:16;94820.19;;;19.81;67.80
21182;BME280;10749;46.296;7.524;2022-08-19T08:30:41;94825.28;;;19.95;67.26
21182;BME280;10749;46.296;7.524;2022-08-19T08:33:09;94822.78;;;20.16;67.47
21182;BME280;10749;46.296;7.524;2022-08-19T08:35:35;94823.53;;;20.28;66.89
21182;BME280;10749;46.296;7.524;2022-08-19T08:38:00;94836.38;;;20.26;67.30
21182;BME280;10749;46.296;7.524;2022-08-19T08:43:06;94835.66;;;20.43;67.10
21182;BME280;10749;46.296;7.524;2022-08-19T08:45:33;94843.34;;;20.51;66.99
21182;BME280;10749;46.296;7.524;2022-08-19T08:48:15;94842.94;;;20.59;66.85
21182;BME280;10749;46.296;7.524;2022-08-19T08:50:43;94845.56;;;20.54;66.94
21182;BME280;10749;46.296;7.524;2022-08-19T08:53:14;94845.72;;;20.64;66.70
21182;BME280;10749;46.296;7.524;2022-08-19T08:55:41;94855.53;;;20.70;66.26
21182;BME280;10749;46.296;7.524;2022-08-19T08:58:10;94852.75;;;20.65;66.37
21182;BME280;10749;46.296;7.524;2022-08-19T09:00:45;94857.88;;;20.66;66.13
21182;BME280;10749;46.296;7.524;2022-08-19T09:03:31;94859.28;;;20.69;66.16
21182;BME280;10749;46.296;7.524;2022-08-19T09:08:49;94858.91;;;20.49;66.59
21182;BME280;10749;46.296;7.524;2022-08-19T09:17:09;94859.84;;;20.71;66.27
21182;BME280;10749;46.296;7.524;2022-08-19T09:19:56;94860.81;;;20.65;66.06
21182;BME280;10749;46.296;7.524;2022-08-19T09:22:22;94863.50;;;20.65;65.97
21182;BME280;10749;46.296;7.524;2022-08-19T09:24:51;94860.31;;;20.68;65.62
21182;BME280;10749;46.296;7.524;2022-08-19T09:27:21;94860.19;;;20.75;65.76
21182;BME280;10749;46.296;7.524;2022-08-19T09:29:50;94871.72;;;20.75;66.02
21182;BME280;10749;46.296;7.524;2022-08-19T09:32:16;94872.56;;;20.76;66.23
21182;BME280;10749;46.296;7.524;2022-08-19T09:34:42;94873.47;;;20.81;66.23
21182;BME280;10749;46.296;7.524;2022-08-19T09:37:08;94873.34;;;20.59;66.68
21182;BME280;10749;46.296;7.524;2022-08-19T09:39:34;94877.19;;;20.63;66.36
21182;BME280;10749;46.296;7.524;2022-08-19T09:41:59;94883.25;;;20.87;65.75
21182;BME280;10749;46.296;7.524;2022-08-19T09:44:25;94881.06;;;20.84;65.94
21182;BME280;10749;46.296;7.524;2022-08-19T09:46:50;94887.69;;;20.37;67.70
21182;BME280;10749;46.296;7.524;2022-08-19T09:49:17;94884.47;;;20.51;66.66
21182;BME280;10749;46.296;7.524;2022-08-19T09:51:43;94878.06;;;20.52;67.52
21182;BME280;10749;46.296;7.524;2022-08-19T09:54:09;94873.28;;;20.71;66.32
21182;BME280;10749;46.296;7.524;2022-08-19T09:56:34;94877.72;;;20.77;66.71
21182;BME280;10749;46.296;7.524;2022-08-19T09:59:02;94875.44;;;20.86;66.25
21182;BME280;10749;46.296;7.524;2022-08-19T10:01:30;94879.97;;;20.40;67.56
21182;BME280;10749;46.296;7.524;2022-08-19T10:03:57;94871.38;;;20.55;66.84
21182;BME280;10749;46.296;7.524;2022-08-19T10:06:25;94880.50;;;20.82;66.42
21182;BME280;10749;46.296;7.524;2022-08-19T10:08:54;94878.88;;;20.98;65.68
21182;BME280;10749;46.296;7.524;2022-08-19T10:11:19;94874.66;;;21.02;65.46
21182;BME280;10749;46.296;7.524;2022-08-19T10:13:45;94875.38;;;20.97;65.49
21182;BME280;10749;46.296;7.524;2022-08-19T10:16:15;94876.91;;;20.93;65.84
21182;BME280;10749;46.296;7.524;2022-08-19T10:18:41;94877.47;;;20.79;65.89
21182;BME280;10749;46.296;7.524;2022-08-19T10:23:37;94878.22;;;20.62;66.64
21182;BME280;10749;46.296;7.524;2022-08-19T10:26:05;94882.69;;;20.85;65.76
21182;BME280;10749;46.296;7.524;2022-08-19T10:28:35;94878.66;;;20.99;65.68
21182;BME280;10749;46.296;7.524;2022-08-19T10:31:07;94882.28;;;20.93;65.16
21182;BME280;10749;46.296;7.524;2022-08-19T10:33:33;94886.72;;;20.99;65.33
21182;BME280;10749;46.296;7.524;2022-08-19T10:36:01;94888.50;;;21.10;65.43
21182;BME280;10749;46.296;7.524;2022-08-19T10:38:26;94890.63;;;21.08;65.18
21182;BME280;10749;46.296;7.524;2022-08-19T10:40:53;94882.06;;;20.95;65.67
21182;BME280;10749;46.296;7.524;2022-08-19T10:43:19;94892.72;;;20.90;65.65
21182;BME280;10749;46.296;7.524;2022-08-19T10:45:51;94886.22;;;21.02;65.29
21182;BME280;10749;46.296;7.524;2022-08-19T10:48:17;94886.22;;;21.02;64.96
21182;BME280;10749;46.296;7.524;2022-08-19T10:50:42;94882.59;;;20.80;65.38
21182;BME280;10749;46.296;7.524;2022-08-19T10:53:26;94891.41;;;20.92;65.46
21182;BME280;10749;46.296;7.524;2022-08-19T10:55:51;94892.09;;;20.99;64.98
21182;BME280;10749;46.296;7.524;2022-08-19T10:58:35;94875.88;;;20.94;65.50
21182;BME280;10749;46.296;7.524;2022-08-19T11:01:00;94870.00;;;20.97;65.76
21182;BME280;10749;46.296;7.524;2022-08-19T11:03:26;94876.59;;;21.06;65.21
21182;BME280;10749;46.296;7.524;2022-08-19T11:06:04;94870.88;;;20.86;66.02
21182;BME280;10749;46.296;7.524;2022-08-19T11:08:31;94859.13;;;20.92;65.37
21182;BME280;10749;46.296;7.524;2022-08-19T11:10:58;94863.53;;;20.82;65.54
21182;BME280;10749;46.296;7.524;2022-08-19T11:13:33;94853.75;;;20.92;65.02
21182;BME280;10749;46.296;7.524;2022-08-19T11:16:12;94858.22;;;21.15;64.68
21182;BME280;10749;46.296;7.524;2022-08-19T11:18:44;94847.53;;;21.37;64.36
21182;BME280;10749;46.296;7.524;2022-08-19T11:21:20;94861.97;;;21.47;64.22
21182;BME280;10749;46.296;7.524;2022-08-19T11:23:48;94865.72;;;21.30;63.44
21182;BME280;10749;46.296;7.524;2022-08-19T11:26:15;94869.72;;;21.27;63.81
21182;BME280;10749;46.296;7.524;2022-08-19T11:28:41;94868.00;;;21.21;63.19
21182;BME280;10749;46.296;7.524;2022-08-19T11:31:16;94882.25;;;21.22;63.40
21182;BME280;10749;46.296;7.524;2022-08-19T11:33:42;94880.72;;;21.26;63.33
21182;BME280;10749;46.296;7.524;2022-08-19T11:36:08;94893.63;;;21.24;63.86
21182;BME280;10749;46.296;7.524;2022-08-19T11:38:34;94898.28;;;21.28;62.82
21182;BME280;10749;46.296;7.524;2022-08-19T11:41:03;94895.59;;;21.28;63.59
21182;BME280;10749;46.296;7.524;2022-08-19T11:43:29;94894.91;;;21.38;63.38
21182;BME280;10749;46.296;7.524;2022-08-19T11:45:56;94905.13;;;21.36;62.89
21182;BME280;10749;46.296;7.524;2022-08-19T11:48:22;94900.28;;;21.38;62.76
21182;BME280;10749;46.296;7.524;2022-08-19T11:50:49;94913.00;;;21.26;62.92
21182;BME280;10749;46.296;7.524;2022-08-19T11:53:15;94904.38;;;21.24;63.28
21182;BME280;10749;46.296;7.524;2022-08-19T11:55:40;94916.94;;;21.35;62.64
21182;BME280;10749;46.296;7.524;2022-08-19T11:58:07;94907.81;;;21.36;62.77
21182;BME280;10749;46.296;7.524;2022-08-19T12:00:33;94910.50;;;21.36;63.03
21182;BME280;10749;46.296;7.524;2022-08-19T12:03:00;94920.72;;;21.05;63.32
21182;BME280;10749;46.296;7.524;2022-08-19T12:05:26;94922.84;;;21.03;63.75
21182;BME280;10749;46.296;7.524;2022-08-19T12:07:51;94916.16;;;21.06;63.47
21182;BME280;10749;46.296;7.524;2022-08-19T12:10:16;94917.84;;;20.95;63.39
21182;BME280;10749;46.296;7.524;2022-08-19T12:12:42;94928.69;;;20.72;64.14
21182;BME280;10749;46.296;7.524;2022-08-19T12:15:08;94923.91;;;21.02;63.72
21182;BME280;10749;46.296;7.524;2022-08-19T12:17:36;94924.22;;;21.06;63.66
21182;BME280;10749;46.296;7.524;2022-08-19T12:20:02;94921.69;;;21.28;63.24
21182;BME280;10749;46.296;7.524;2022-08-19T12:22:27;94921.91;;;21.43;63.15
21182;BME280;10749;46.296;7.524;2022-08-19T12:24:53;94910.91;;;21.61;62.99
21182;BME280;10749;46.296;7.524;2022-08-19T12:27:20;94921.69;;;21.61;63.02
21182;BME280;10749;46.296;7.524;2022-08-19T12:29:45;94928.69;;;21.62;62.98
21182;BME280;10749;46.296;7.524;2022-08-19T12:32:11;94929.50;;;21.46;62.95
21182;BME280;10749;46.296;7.524;2022-08-19T12:34:36;94924.06;;;21.57;63.21
21182;BME280;10749;46.296;7.524;2022-08-19T12:37:05;94925.50;;;21.65;62.95
21182;BME280;10749;46.296;7.524;2022-08-19T12:39:38;94924.69;;;21.64;62.77
21182;BME280;10749;46.296;7.524;2022-08-19T12:42:05;94918.56;;;21.69;62.76
21182;BME280;10749;46.296;7.524;2022-08-19T12:44:30;94924.69;;;21.64;62.80
21182;BME280;10749;46.296;7.524;2022-08-19T12:46:58;94915.22;;;21.62;62.87
21182;BME280;10749;46.296;7.524;2022-08-19T12:49:23;94930.09;;;21.48;62.94
21182;BME280;10749;46.296;7.524;2022-08-19T12:51:50;94927.47;;;21.53;62.67
21182;BME280;10749;46.296;7.524;2022-08-19T12:54:15;94930.19;;;21.53;62.68
21182;BME280;10749;46.296;7.524;2022-08-19T12:56:40;94922.97;;;21.58;62.33
21182;BME280;10749;46.296;7.524;2022-08-19T12:59:07;94924.59;;;21.59;62.67
21182;BME280;10749;46.296;7.524;2022-08-19T13:01:33;94928.34;;;21.58;62.50
21182;BME280;10749;46.296;7.524;2022-08-19T13:03:59;94935.88;;;21.56;62.48
21182;BME280;10749;46.296;7.524;2022-08-19T13:06:25;94947.94;;;21.54;62.39
21182;BME280;10749;46.296;7.524;2022-08-19T13:08:51;94940.44;;;21.56;62.63
21182;BME280;10749;46.296;7.524;2022-08-19T13:11:19;94938.06;;;21.59;62.22
21182;BME280;10749;46.296;7.524;2022-08-19T13:13:47;94943.53;;;21.48;62.35
21182;BME280;10749;46.296;7.524;2022-08-19T13:16:13;94946.97;;;21.43;62.44
21182;BME280;10749;46.296;7.524;2022-08-19T13:18:40;94949.41;;;21.28;62.36